Time;durP1;ratioP1;P1;durP2;ratioP2;P2;SDS_P1;SDS_P2;PMS_P1;PMS_P2;Temp;Humidity;BMP_temperature;BMP_pressure;BME280_temperature;BME280_humidity;BME280_pressure;Samples;Min_cycle;Max_cycle;Signal;HPM_P1;HPM_P2
2023/02/02 00:00:28;;;;;;;15.27;2.67;;;;;;;-145.69;100.00;52632.53;5113922;28;20201;-85
2023/02/02 00:02:54;;;;;;;14.93;2.80;;;;;;;-145.69;100.00;52670.16;5114041;28;20201;-84
2023/02/02 00:05:21;;;;;;;14.20;3.17;;;;;;;-145.69;100.00;52666.19;5113706;28;20652;-84
2023/02/02 00:07:47;;;;;;;14.10;2.43;;;;;;;-145.69;100.00;52638.47;5113943;28;20198;-84
2023/02/02 00:10:13;;;;;;;17.97;2.90;;;;;;;-145.69;100.00;52630.53;5116560;28;20233;-84
2023/02/02 00:12:40;;;;;;;13.10;2.87;;;;;;;-145.69;100.00;52624.59;5118143;28;20194;-84
2023/02/02 00:15:09;;;;;;;19.27;2.87;;;;;;;-145.69;100.00;52644.41;5117893;28;20205;-84
2023/02/02 00:17:35;;;;;;;15.60;2.10;;;;;;;-145.69;100.00;52646.41;5117342;28;20667;-83
2023/02/02 00:20:02;;;;;;;11.93;2.90;;;;;;;-145.69;100.00;52652.34;5117541;28;20201;-84
2023/02/02 00:22:28;;;;;;;10.63;2.30;;;;;;;-145.69;100.00;52662.22;5116329;28;20249;-83
2023/02/02 00:24:55;;;;;;;13.30;2.47;;;;;;;-145.69;100.00;52668.19;5097381;28;20212;-83
2023/02/02 00:27:21;;;;;;;11.37;1.80;;;;;;;-145.69;100.00;52642.44;5097281;28;20204;-84
2023/02/02 00:29:48;;;;;;;9.30;2.40;;;;;;;-145.69;100.00;52652.34;5098081;28;20226;-85
2023/02/02 00:32:16;;;;;;;7.27;1.67;;;;;;;-145.69;100.00;52691.94;5117573;28;20660;-82
2023/02/02 00:34:42;;;;;;;6.87;1.97;;;;;;;-145.69;100.00;52654.31;5117124;28;20656;-84
2023/02/02 00:37:08;;;;;;;6.27;1.87;;;;;;;-145.69;100.00;52658.28;5117323;28;20212;-84
2023/02/02 00:39:35;;;;;;;9.93;2.03;;;;;;;-145.69;100.00;52654.31;5117254;28;20198;-84
2023/02/02 00:42:01;;;;;;;14.90;2.40;;;;;;;-145.69;100.00;52636.50;5117402;28;20563;-83
2023/02/02 00:47:12;;;;;;;6.43;1.60;;;;;;;-145.69;100.00;52662.22;5117479;28;20555;-85
2023/02/02 00:49:40;;;;;;;10.10;1.77;;;;;;;-145.69;100.00;52678.09;5117851;28;20603;-85
2023/02/02 00:52:06;;;;;;;5.67;1.60;;;;;;;-145.69;100.00;52682.03;5117041;28;20576;-84
2023/02/02 00:54:33;;;;;;;7.47;1.73;;;;;;;-145.69;100.00;52640.44;5117336;28;20205;-83
2023/02/02 00:56:59;;;;;;;8.10;1.70;;;;;;;-145.69;100.00;52634.50;5117233;28;20206;-85
2023/02/02 00:59:26;;;;;;;11.00;2.03;;;;;;;-145.69;100.00;52638.47;5117214;28;20201;-84
2023/02/02 01:01:52;;;;;;;5.20;1.77;;;;;;;-145.69;100.00;52636.50;5117028;28;20201;-84
2023/02/02 01:04:19;;;;;;;10.97;2.33;;;;;;;-145.69;100.00;52638.47;5116709;28;20220;-83
2023/02/02 01:06:46;;;;;;;7.03;1.87;;;;;;;-145.69;100.00;52644.41;5116891;28;20220;-84
2023/02/02 01:09:13;;;;;;;10.23;2.13;;;;;;;-145.69;100.00;52699.88;5116748;28;20197;-84
2023/02/02 01:11:39;;;;;;;14.10;2.10;;;;;;;-145.69;100.00;52674.13;5116631;28;20240;-84
2023/02/02 01:14:06;;;;;;;9.07;1.97;;;;;;;-145.69;100.00;52658.28;5116771;28;20198;-84
2023/02/02 01:16:32;;;;;;;7.80;2.03;;;;;;;-145.69;100.00;52652.34;5116989;28;20193;-85
2023/02/02 01:18:59;;;;;;;4.60;1.53;;;;;;;-145.69;100.00;52632.53;5116735;28;20207;-84
2023/02/02 01:21:25;;;;;;;7.67;1.87;;;;;;;-145.69;100.00;52632.53;5116102;28;20224;-84
2023/02/02 01:23:53;;;;;;;9.90;2.00;;;;;;;-145.69;100.00;52646.41;5116844;28;20206;-84
2023/02/02 01:26:19;;;;;;;7.83;1.93;;;;;;;-145.69;100.00;52630.53;5116318;28;20675;-84
2023/02/02 01:28:46;;;;;;;10.50;2.23;;;;;;;-145.69;100.00;52666.19;5116396;28;20193;-84
2023/02/02 01:31:15;;;;;;;9.73;1.57;;;;;;;-145.69;100.00;52668.19;5116445;28;20225;-84
2023/02/02 01:33:42;;;;;;;4.97;1.50;;;;;;;-145.69;100.00;52662.22;5116694;28;20198;-84
2023/02/02 01:36:11;;;;;;;7.63;2.00;;;;;;;-145.69;100.00;52672.13;5115988;28;20225;-84
2023/02/02 01:38:38;;;;;;;10.00;1.50;;;;;;;-145.69;100.00;52640.44;5116427;28;20193;-84
2023/02/02 01:41:06;;;;;;;7.37;2.00;;;;;;;-145.69;100.00;52668.19;5116028;28;20206;-83
2023/02/02 01:43:53;;;;;;;9.27;1.93;;;;;;;-145.69;100.00;52652.34;5116042;28;20201;-84
2023/02/02 01:46:22;;;;;;;9.40;2.00;;;;;;;-145.69;100.00;52638.47;5115780;28;20324;-85
2023/02/02 01:48:52;;;;;;;3.43;1.73;;;;;;;-145.69;100.00;52658.28;5115967;28;20656;-85
2023/02/02 01:51:21;;;;;;;10.03;2.37;;;;;;;-145.69;100.00;52666.19;5116499;28;20236;-85
2023/02/02 01:53:50;;;;;;;9.17;1.70;;;;;;;-145.69;100.00;52672.13;5114984;28;20197;-85
2023/02/02 01:56:24;;;;;;;8.20;2.20;;;;;;;-145.69;100.00;52640.44;5116322;28;20201;-84
2023/02/02 01:58:51;;;;;;;11.23;2.20;;;;;;;-145.69;100.00;52652.34;5116381;28;20201;-85
2023/02/02 02:01:17;;;;;;;9.33;2.00;;;;;;;-145.69;100.00;52660.25;5116377;28;20201;-85
2023/02/02 02:03:44;;;;;;;12.30;2.27;;;;;;;-145.69;100.00;52658.28;5116088;28;20200;-86
2023/02/02 02:06:13;;;;;;;5.50;1.73;;;;;;;-145.69;100.00;52682.03;5116410;28;20201;-82
2023/02/02 02:08:47;;;;;;;8.50;2.10;;;;;;;-145.69;100.00;52630.53;5115427;28;20201;-84
2023/02/02 02:11:14;;;;;;;11.73;1.77;;;;;;;-145.69;100.00;52652.34;5115780;28;20229;-84
2023/02/02 02:16:39;;;;;;;10.17;2.10;;;;;;;-145.69;100.00;52650.34;5096809;28;20208;-85
2023/02/02 02:19:19;;;;;;;9.10;2.10;;;;;;;-145.69;100.00;52684.03;5115619;28;20189;-84
2023/02/02 02:28:35;;;;;;;7.33;1.83;;;;;;;-145.69;100.00;52686.00;5032872;28;20258;-85
2023/02/02 02:31:41;;;;;;;10.90;1.87;;;;;;;-145.69;100.00;52703.81;5032385;28;20243;-84
2023/02/02 02:34:15;;;;;;;8.37;1.70;;;;;;;-145.69;100.00;52658.28;5062630;28;20530;-84
2023/02/02 02:36:50;;;;;;;7.70;1.73;;;;;;;-145.69;100.00;52660.25;5094941;28;20649;-84
2023/02/02 02:39:24;;;;;;;5.47;1.80;;;;;;;-145.69;100.00;52654.31;5104617;28;20651;-84
2023/02/02 02:41:55;;;;;;;8.57;1.83;;;;;;;-145.69;100.00;52646.41;5114788;28;20200;-85
2023/02/02 02:44:23;;;;;;;5.10;1.67;;;;;;;-145.69;100.00;52664.22;5115359;28;20586;-85
2023/02/02 02:46:50;;;;;;;6.13;1.57;;;;;;;-145.69;100.00;52638.47;5115016;28;20248;-85
2023/02/02 02:49:18;;;;;;;6.68;1.95;;;;;;;-145.69;100.00;52640.44;5114627;28;20434;-84
2023/02/02 02:51:47;;;;;;;9.30;1.77;;;;;;;-145.69;100.00;52648.38;5114828;28;20236;-84
2023/02/02 02:54:17;;;;;;;7.70;1.87;;;;;;;-145.69;100.00;52642.44;5114927;28;20197;-84
2023/02/02 02:57:04;;;;;;;13.03;2.00;;;;;;;-145.69;100.00;52622.63;5115935;28;20602;-85
2023/02/02 02:59:37;;;;;;;9.43;1.83;;;;;;;-145.69;100.00;52594.91;5114836;28;20197;-85
2023/02/02 03:02:15;;;;;;;5.73;1.80;;;;;;;-145.69;100.00;52646.41;5114643;28;20233;-85
2023/02/02 03:04:55;;;;;;;8.67;2.00;;;;;;;-145.69;100.00;52648.38;5114874;28;20243;-84
2023/02/02 03:07:26;;;;;;;8.90;1.70;;;;;;;-145.69;100.00;52632.53;5115160;28;20208;-84
2023/02/02 03:09:56;;;;;;;8.27;2.23;;;;;;;-145.69;100.00;52638.47;5114671;28;20198;-84
2023/02/02 03:12:23;;;;;;;6.27;1.50;;;;;;;-145.69;100.00;52614.72;5114795;28;20225;-84
2023/02/02 03:14:49;;;;;;;11.20;1.60;;;;;;;-145.69;100.00;52668.19;5115166;28;20292;-86
2023/02/02 03:17:16;;;;;;;6.63;1.97;;;;;;;-145.69;100.00;52646.41;5115609;28;20193;-85
2023/02/02 03:19:42;;;;;;;6.60;1.70;;;;;;;-145.69;100.00;52652.34;5114790;28;20198;-85
2023/02/02 03:22:10;;;;;;;5.97;1.80;;;;;;;-145.69;100.00;52652.34;5114775;28;20201;-86
2023/02/02 03:24:36;;;;;;;5.13;1.50;;;;;;;-145.69;100.00;52638.47;5114608;28;20218;-87
2023/02/02 03:27:03;;;;;;;11.83;2.57;;;;;;;-145.69;100.00;52652.34;5114870;28;20205;-87
2023/02/02 03:29:29;;;;;;;6.77;1.90;;;;;;;-145.69;100.00;52664.22;5115470;28;20204;-87
2023/02/02 03:31:56;;;;;;;7.70;1.67;;;;;;;-145.69;100.00;52622.63;5115283;28;20233;-87
2023/02/02 03:34:23;;;;;;;8.80;1.97;;;;;;;-145.69;100.00;52650.34;5115269;28;20198;-87
2023/02/02 03:36:49;;;;;;;7.67;1.97;;;;;;;-145.69;100.00;52638.47;5115034;28;20387;-86
2023/02/02 03:39:17;;;;;;;6.85;1.65;;;;;;;-145.69;100.00;52662.22;5113581;28;20450;-86
2023/02/02 03:41:43;;;;;;;12.00;1.90;;;;;;;-145.69;100.00;52638.47;5114652;28;20201;-87
2023/02/02 03:44:10;;;;;;;7.97;1.60;;;;;;;-145.69;100.00;52672.13;5115138;28;20205;-87
2023/02/02 03:46:36;;;;;;;5.70;1.40;;;;;;;-145.69;100.00;52626.59;5114671;28;20267;-87
2023/02/02 03:49:03;;;;;;;5.47;1.53;;;;;;;-145.69;100.00;52646.41;5115948;28;20564;-86
2023/02/02 03:51:29;;;;;;;4.83;1.50;;;;;;;-145.69;100.00;52644.41;5114594;28;20600;-86
2023/02/02 03:53:55;;;;;;;4.83;1.30;;;;;;;-145.69;100.00;52630.53;5115200;28;20205;-87
2023/02/02 03:56:23;;;;;;;9.47;1.63;;;;;;;-145.69;100.00;52634.50;5115166;28;20201;-87
2023/02/02 03:58:50;;;;;;;6.67;1.53;;;;;;;-145.69;100.00;52642.44;5115290;28;20224;-87
2023/02/02 04:01:16;;;;;;;10.90;1.70;;;;;;;-145.69;100.00;52620.66;5115380;28;20201;-88
2023/02/02 04:03:45;;;;;;;7.07;1.57;;;;;;;-145.69;100.00;52626.59;5114939;28;20205;-86
2023/02/02 04:06:11;;;;;;;7.80;2.13;;;;;;;-145.69;100.00;52634.50;5115214;28;20648;-86
2023/02/02 04:08:38;;;;;;;8.57;1.60;;;;;;;-145.69;100.00;52626.59;5114916;28;20200;-87
2023/02/02 04:11:04;;;;;;;7.93;1.70;;;;;;;-145.69;100.00;52664.22;5113238;28;20608;-86
2023/02/02 04:13:32;;;;;;;6.90;1.90;;;;;;;-145.69;100.00;52634.50;5114307;28;20193;-86
2023/02/02 04:15:59;;;;;;;8.10;1.73;;;;;;;-145.69;100.00;52658.28;5114658;28;20201;-86
2023/02/02 04:18:26;;;;;;;2.13;1.37;;;;;;;-145.69;100.00;52652.34;5114691;28;20201;-86
2023/02/02 04:20:57;;;;;;;5.57;1.27;;;;;;;-145.69;100.00;52638.47;5114345;28;20200;-87
2023/02/02 04:23:24;;;;;;;12.50;1.53;;;;;;;-145.69;100.00;52638.47;5114874;28;20205;-87
2023/02/02 04:25:51;;;;;;;6.30;1.30;;;;;;;-145.69;100.00;52624.59;5114093;28;20255;-85
2023/02/02 04:28:18;;;;;;;4.60;1.30;;;;;;;-145.69;100.00;52658.28;5114803;28;20205;-85
2023/02/02 04:30:46;;;;;;;4.90;1.60;;;;;;;-145.69;100.00;52654.31;5113851;28;20190;-87
2023/02/02 04:33:12;;;;;;;6.00;1.90;;;;;;;-145.69;100.00;52686.00;5114762;28;20206;-86
2023/02/02 04:35:38;;;;;;;2.50;1.10;;;;;;;-145.69;100.00;52660.25;5115613;28;20202;-87
2023/02/02 04:38:05;;;;;;;1.97;0.97;;;;;;;-145.69;100.00;52638.47;5117410;28;20556;-86
2023/02/02 04:40:31;;;;;;;7.60;1.70;;;;;;;-145.69;100.00;52654.31;5115622;28;20284;-86
2023/02/02 04:42:58;;;;;;;5.53;1.30;;;;;;;-145.69;100.00;52650.34;5115677;28;20209;-87
2023/02/02 04:45:24;;;;;;;2.20;1.23;;;;;;;-145.69;100.00;52662.22;5114725;28;20735;-87
2023/02/02 04:47:52;;;;;;;4.97;1.30;;;;;;;-145.69;100.00;52662.22;5118320;28;20197;-87
2023/02/02 04:50:19;;;;;;;4.77;1.50;;;;;;;-145.69;100.00;52638.47;5121640;28;20210;-89
2023/02/02 04:52:45;;;;;;;4.47;1.40;;;;;;;-145.69;100.00;52686.00;5118580;28;20233;-87
2023/02/02 04:55:11;;;;;;;6.30;1.20;;;;;;;-145.69;100.00;52618.66;5115223;28;20202;-86
2023/02/02 04:57:38;;;;;;;5.33;1.63;;;;;;;-145.69;100.00;52640.44;5118519;28;20201;-88
2023/02/02 05:00:05;;;;;;;2.70;1.17;;;;;;;-145.69;100.00;52630.53;5120827;28;20206;-88
2023/02/02 05:02:35;;;;;;;8.00;1.50;;;;;;;-145.69;100.00;52636.50;5120210;28;20198;-86
2023/02/02 05:05:03;;;;;;;5.43;1.30;;;;;;;-145.69;100.00;52664.22;5125854;28;20200;-87
2023/02/02 05:07:30;;;;;;;4.97;1.10;;;;;;;-145.69;100.00;52636.50;5122982;28;20197;-88
2023/02/02 05:09:56;;;;;;;4.40;1.27;;;;;;;-145.69;100.00;52622.63;5125420;28;20202;-86
2023/02/02 05:12:23;;;;;;;6.43;1.67;;;;;;;-145.69;100.00;52654.31;5124734;28;20229;-87
2023/02/02 05:14:49;;;;;;;3.23;1.10;;;;;;;-145.69;100.00;52670.16;5125898;28;20226;-87
2023/02/02 05:17:16;;;;;;;10.90;1.90;;;;;;;-145.69;100.00;52598.84;5123756;28;20609;-87
2023/02/02 05:19:42;;;;;;;4.43;1.37;;;;;;;-145.69;100.00;52654.31;5121759;28;20212;-86
2023/02/02 05:22:10;;;;;;;4.30;1.40;;;;;;;-145.69;100.00;52652.34;5121675;28;20197;-87
2023/02/02 05:24:37;;;;;;;4.43;1.40;;;;;;;-145.69;100.00;52642.44;5122631;28;20201;-88
2023/02/02 05:27:03;;;;;;;3.83;1.33;;;;;;;-145.69;100.00;52616.69;5123630;28;20201;-87
2023/02/02 05:29:31;;;;;;;5.20;1.73;;;;;;;-145.69;100.00;52654.31;5122494;28;20205;-87
2023/02/02 05:31:57;;;;;;;3.83;1.47;;;;;;;-145.69;100.00;52650.34;5121682;28;20221;-87
2023/02/02 05:34:25;;;;;;;3.93;1.50;;;;;;;-145.69;100.00;52662.22;5122133;28;20202;-88
2023/02/02 05:36:51;;;;;;;4.77;1.53;;;;;;;-145.69;100.00;52622.63;5122158;28;20284;-85
2023/02/02 05:39:19;;;;;;;9.13;1.50;;;;;;;-145.69;100.00;52658.28;5126238;28;20209;-87
2023/02/02 05:41:45;;;;;;;3.70;1.47;;;;;;;-145.69;100.00;52642.44;5126524;28;20293;-88
2023/02/02 05:44:13;;;;;;;8.37;1.83;;;;;;;-145.69;100.00;52636.50;5124632;28;20254;-88
2023/02/02 05:46:40;;;;;;;5.30;1.67;;;;;;;-145.69;100.00;52626.59;5124588;28;20236;-88
2023/02/02 05:49:12;;;;;;;6.73;1.60;;;;;;;-145.69;100.00;52640.44;5119674;28;20197;-86
2023/02/02 05:51:43;;;;;;;3.93;1.53;;;;;;;-145.69;100.00;52638.47;5122184;28;20232;-88
2023/02/02 05:54:09;;;;;;;4.83;1.23;;;;;;;-145.69;100.00;52618.66;5122019;28;20201;-86
2023/02/02 05:56:37;;;;;;;2.37;1.30;;;;;;;-145.69;100.00;52662.22;5121606;28;20205;-88
2023/02/02 05:59:06;;;;;;;3.97;1.40;;;;;;;-145.69;100.00;52656.28;5121856;28;20204;-87
2023/02/02 06:01:33;;;;;;;4.10;1.23;;;;;;;-145.69;100.00;52630.53;5123657;28;20240;-87
2023/02/02 06:03:59;;;;;;;5.90;1.43;;;;;;;-145.69;100.00;52644.41;5119887;28;20204;-87
2023/02/02 06:06:26;;;;;;;3.90;1.30;;;;;;;-145.69;100.00;52662.22;5119053;28;20198;-86
2023/02/02 06:08:52;;;;;;;7.53;1.50;;;;;;;-145.69;100.00;52626.59;5116753;28;20197;-86
2023/02/02 06:11:19;;;;;;;6.43;1.60;;;;;;;-145.69;100.00;52642.44;5117178;28;20248;-87
2023/02/02 06:13:47;;;;;;;5.60;1.43;;;;;;;-145.69;100.00;52686.00;5110661;28;20202;-88
2023/02/02 06:16:14;;;;;;;5.00;1.60;;;;;;;-145.69;100.00;52646.41;5104813;28;20199;-89
2023/02/02 06:18:40;;;;;;;6.10;2.27;;;;;;;-145.69;100.00;52650.34;5101945;28;20623;-88
2023/02/02 06:21:07;;;;;;;4.07;1.70;;;;;;;-145.69;100.00;52622.63;5116707;28;20223;-89
2023/02/02 06:23:34;;;;;;;5.13;1.50;;;;;;;-145.69;100.00;52642.44;5123322;28;20205;-89
2023/02/02 06:26:02;;;;;;;6.87;1.83;;;;;;;-145.69;100.00;52650.34;5121902;28;20197;-89
2023/02/02 06:28:28;;;;;;;5.93;1.70;;;;;;;-145.69;100.00;52646.41;5123553;28;20284;-89
2023/02/02 06:30:56;;;;;;;4.73;1.80;;;;;;;-145.69;100.00;52670.16;5124726;28;20190;-89
2023/02/02 06:33:23;;;;;;;4.57;1.70;;;;;;;-145.69;100.00;52618.66;5122967;28;20229;-89
2023/02/02 06:35:49;;;;;;;5.87;1.80;;;;;;;-145.69;100.00;52634.50;5125004;28;20226;-89
2023/02/02 06:38:16;;;;;;;6.50;2.20;;;;;;;-145.69;100.00;52682.03;5121681;28;20202;-89
2023/02/02 06:40:42;;;;;;;5.70;2.33;;;;;;;-145.69;100.00;52650.34;5121960;28;20189;-89
2023/02/02 06:43:10;;;;;;;9.63;2.20;;;;;;;-145.69;100.00;52658.28;5125965;28;20224;-89
2023/02/02 06:45:39;;;;;;;8.60;2.23;;;;;;;-145.69;100.00;52630.53;5123739;28;20246;-89
2023/02/02 06:48:09;;;;;;;5.93;1.83;;;;;;;-145.69;100.00;52638.47;5124514;28;20202;-88
2023/02/02 06:50:36;;;;;;;4.30;1.93;;;;;;;-145.69;100.00;52642.44;5123660;28;20194;-87
2023/02/02 06:53:02;;;;;;;13.00;3.53;;;;;;;-145.69;100.00;52662.22;5121245;28;20236;-87
2023/02/02 06:55:29;;;;;;;4.47;1.60;;;;;;;-145.69;100.00;52648.38;5120370;27;20197;-86
2023/02/02 06:57:56;;;;;;;11.17;2.47;;;;;;;-145.69;100.00;52616.69;5120245;28;20228;-86
2023/02/02 07:00:23;;;;;;;4.90;2.30;;;;;;;-145.69;100.00;52676.09;5119994;28;20231;-87
2023/02/02 07:02:50;;;;;;;7.87;2.40;;;;;;;-145.69;100.00;52666.19;5120081;28;20193;-88
2023/02/02 07:05:20;;;;;;;11.83;2.20;;;;;;;-145.69;100.00;52634.50;5119039;28;20201;-86
2023/02/02 07:07:46;;;;;;;5.43;2.00;;;;;;;-145.69;100.00;52646.41;5116518;28;20201;-86
2023/02/02 07:10:13;;;;;;;11.03;1.83;;;;;;;-145.69;100.00;52660.25;5116265;28;20247;-86
2023/02/02 07:12:39;;;;;;;8.80;2.33;;;;;;;-145.69;100.00;52658.28;5115854;28;20278;-86
2023/02/02 07:15:07;;;;;;;3.53;1.70;;;;;;;-145.69;100.00;52650.34;5116490;28;20197;-85
2023/02/02 07:17:33;;;;;;;7.10;1.87;;;;;;;-145.69;100.00;52654.31;5115597;28;20204;-85
2023/02/02 07:20:00;;;;;;;8.13;1.93;;;;;;;-145.69;100.00;52646.41;5114572;28;20197;-84
2023/02/02 07:22:28;;;;;;;6.23;1.77;;;;;;;-145.69;100.00;52652.34;5115016;28;20204;-84
2023/02/02 07:24:54;;;;;;;6.27;1.90;;;;;;;-145.69;100.00;52650.34;5117397;28;20193;-85
2023/02/02 07:27:21;;;;;;;8.33;2.17;;;;;;;-145.69;100.00;52682.03;5115023;28;20533;-83
2023/02/02 07:29:47;;;;;;;3.90;2.03;;;;;;;-145.69;100.00;52660.25;5116142;28;20205;-85
2023/02/02 07:32:14;;;;;;;10.33;2.97;;;;;;;-145.69;100.00;52652.34;5115792;28;20213;-85
2023/02/02 07:34:45;;;;;;;11.63;2.00;;;;;;;-145.69;100.00;52658.28;5115814;28;20645;-85
2023/02/02 07:37:12;;;;;;;8.93;2.20;;;;;;;-145.69;100.00;52638.47;5115062;28;20201;-84
2023/02/02 07:39:43;;;;;;;10.27;2.17;;;;;;;-145.69;100.00;52650.34;5113300;28;20197;-84
2023/02/02 07:42:11;;;;;;;7.82;2.65;;;;;;;-145.69;100.00;52654.31;5114169;28;20348;-85
2023/02/02 07:44:37;;;;;;;6.23;2.50;;;;;;;-145.69;100.00;52654.31;5112796;28;20247;-84
2023/02/02 07:47:04;;;;;;;4.67;2.17;;;;;;;-145.69;100.00;52658.28;5113400;28;20225;-84
2023/02/02 07:49:31;;;;;;;3.37;2.10;;;;;;;-145.69;100.00;52646.41;5114056;28;20667;-85
2023/02/02 07:51:58;;;;;;;10.00;3.13;;;;;;;-145.69;100.00;52662.22;5113680;28;20201;-84
2023/02/02 07:54:24;;;;;;;9.90;2.20;;;;;;;-145.69;100.00;52658.28;5113808;28;20201;-85
2023/02/02 07:56:52;;;;;;;6.53;1.93;;;;;;;-145.69;100.00;52674.13;5113802;28;20197;-83
2023/02/02 07:59:22;;;;;;;6.70;2.27;;;;;;;-145.69;100.00;52646.41;5114053;28;20193;-85
2023/02/02 08:01:48;;;;;;;6.13;2.27;;;;;;;-145.69;100.00;52668.19;5115221;28;20209;-83
2023/02/02 08:04:16;;;;;;;8.00;2.50;;;;;;;-145.69;100.00;52636.50;5115207;28;20225;-84
2023/02/02 08:06:44;;;;;;;14.10;2.57;;;;;;;-145.69;100.00;52644.41;5114710;28;20194;-83
2023/02/02 08:09:11;;;;;;;7.77;2.50;;;;;;;-145.69;100.00;52660.25;5115897;28;20201;-84
2023/02/02 08:11:41;;;;;;;8.60;2.10;;;;;;;-145.69;100.00;52622.63;5115451;28;20264;-84
2023/02/02 08:14:13;;;;;;;12.90;2.67;;;;;;;-145.69;100.00;52662.22;5115658;28;20271;-84
2023/02/02 08:16:39;;;;;;;9.27;2.20;;;;;;;-145.69;100.00;52638.47;5114541;28;20201;-84
2023/02/02 08:19:08;;;;;;;6.13;1.90;;;;;;;-145.69;100.00;52664.22;5115458;28;20675;-83
2023/02/02 08:21:35;;;;;;;8.40;2.33;;;;;;;-145.69;100.00;52670.16;5114286;28;20518;-84
2023/02/02 08:24:03;;;;;;;8.07;2.10;;;;;;;-145.69;100.00;52650.34;5096658;28;20644;-81
2023/02/02 08:26:31;;;;;;;6.87;2.20;;;;;;;-145.69;100.00;52682.03;5093412;28;20236;-86
2023/02/02 08:28:59;;;;;;;4.33;1.50;;;;;;;-145.69;100.00;52646.41;5094701;28;20290;-84
2023/02/02 08:31:29;;;;;;;6.10;2.20;;;;;;;-145.69;100.00;52630.53;5109628;28;20200;-85
2023/02/02 08:33:57;;;;;;;8.75;2.65;;;;;;;-145.69;100.00;52636.50;5117891;28;20484;-85
2023/02/02 08:36:26;;;;;;;9.30;2.57;;;;;;;-145.69;100.00;52682.03;5117797;28;20201;-84
2023/02/02 08:38:53;;;;;;;8.43;2.53;;;;;;;-145.69;100.00;52654.31;5117798;28;20209;-84
2023/02/02 08:41:21;;;;;;;9.73;2.20;;;;;;;-145.69;100.00;52646.41;5117234;28;20561;-83
2023/02/02 08:43:48;;;;;;;4.73;2.13;;;;;;;-145.69;100.00;52672.13;5116722;28;20672;-83
2023/02/02 08:46:16;;;;;;;5.63;1.83;;;;;;;-145.69;100.00;52632.53;5116693;28;20229;-83
2023/02/02 08:48:45;;;;;;;9.27;2.63;;;;;;;-145.69;100.00;52646.41;5118201;28;20202;-83
2023/02/02 08:51:14;;;;;;;8.87;2.10;;;;;;;-145.69;100.00;52606.78;5117009;28;20201;-83
2023/02/02 08:53:42;;;;;;;2.33;1.63;;;;;;;-145.69;100.00;52612.72;5116998;28;20225;-84
2023/02/02 08:56:11;;;;;;;10.37;2.17;;;;;;;-145.69;100.00;52618.66;5117893;28;20193;-83
2023/02/02 08:58:44;;;;;;;4.50;2.37;;;;;;;-145.69;100.00;52658.28;5116739;28;20203;-80
2023/02/02 09:01:14;;;;;;;4.70;1.80;;;;;;;-145.69;100.00;52674.13;5124041;27;20190;-82
2023/02/02 09:03:41;;;;;;;9.43;2.03;;;;;;;-145.69;100.00;52662.22;5116713;28;20193;-82
2023/02/02 09:06:10;;;;;;;3.67;1.70;;;;;;;-145.69;100.00;52695.91;5116523;28;20208;-80
2023/02/02 09:08:37;;;;;;;5.80;1.83;;;;;;;-145.69;100.00;52622.63;5116757;28;20198;-83
2023/02/02 09:11:06;;;;;;;6.40;1.90;;;;;;;-145.69;100.00;52638.47;5116566;28;20201;-81
2023/02/02 09:13:32;;;;;;;7.47;1.80;;;;;;;-145.69;100.00;52604.81;5115864;28;20587;-82
2023/02/02 09:16:00;;;;;;;6.13;1.80;;;;;;;-145.69;100.00;52638.47;5115766;28;20201;-82
2023/02/02 09:18:29;;;;;;;7.33;1.80;;;;;;;-145.69;100.00;52612.72;5116248;28;20228;-83
2023/02/02 09:20:59;;;;;;;5.27;1.70;;;;;;;-145.69;100.00;52646.41;5115935;28;20568;-83
2023/02/02 09:23:29;;;;;;;4.50;1.57;;;;;;;-145.69;100.00;52642.44;5115836;28;20197;-82
2023/02/02 09:25:57;;;;;;;6.50;1.70;;;;;;;-145.69;100.00;52638.47;5115720;28;20232;-83
2023/02/02 09:28:24;;;;;;;5.30;1.93;;;;;;;-145.69;100.00;52642.44;5111890;28;20214;-81
2023/02/02 09:30:51;;;;;;;9.80;1.67;;;;;;;-145.69;100.00;52626.59;5106891;28;20194;-81
2023/02/02 09:33:20;;;;;;;5.20;1.40;;;;;;;-145.69;100.00;52632.53;5102933;28;20225;-80
2023/02/02 09:35:57;;;;;;;8.20;1.67;;;;;;;-145.69;100.00;52678.09;5095605;28;20216;-81
2023/02/02 09:38:24;;;;;;;8.17;1.67;;;;;;;-145.69;100.00;52656.28;5114265;28;20207;-82
2023/02/02 09:40:56;;;;;;;6.80;2.00;;;;;;;-145.69;100.00;52642.44;5114466;28;20190;-83
2023/02/02 09:43:43;;;;;;;2.63;1.30;;;;;;;-145.69;100.00;52654.31;5115456;28;20202;-81
2023/02/02 09:46:18;;;;;;;7.00;1.60;;;;;;;-145.69;100.00;52678.09;5114826;28;20229;-81
2023/02/02 09:48:53;;;;;;;3.93;1.47;;;;;;;-145.69;100.00;52630.53;5114629;28;20208;-80
2023/02/02 09:51:23;;;;;;;4.90;1.80;;;;;;;-145.69;100.00;52674.13;5115205;28;20203;-80
2023/02/02 09:53:57;;;;;;;4.23;1.70;;;;;;;-145.69;100.00;52646.41;5115239;28;20330;-80
2023/02/02 09:56:34;;;;;;;2.87;1.43;;;;;;;-145.69;100.00;52622.63;5115432;28;20205;-81
2023/02/02 09:59:08;;;;;;;5.03;1.97;;;;;;;-145.69;100.00;52642.44;5115248;28;20208;-81
2023/02/02 10:01:41;;;;;;;9.23;1.50;;;;;;;-145.69;100.00;52636.50;5115811;27;20217;-81
2023/02/02 10:04:18;;;;;;;4.33;1.60;;;;;;;-145.69;100.00;52652.34;5114439;28;20285;-80
2023/02/02 10:07:06;;;;;;;6.87;1.50;;;;;;;-145.69;100.00;52640.44;5114235;28;20197;-81
2023/02/02 10:09:39;;;;;;;3.47;1.50;;;;;;;-145.69;100.00;52666.19;5115070;28;20674;-80
2023/02/02 10:12:32;;;;;;;7.13;1.60;;;;;;;-145.69;100.00;52606.78;5115173;28;20209;-80
2023/02/02 10:15:21;;;;;;;7.83;2.10;;;;;;;-145.69;100.00;52652.34;5115059;28;20205;-81
2023/02/02 10:17:57;;;;;;;4.47;1.80;;;;;;;-145.69;100.00;52626.59;5114687;28;20656;-80
2023/02/02 10:20:43;;;;;;;7.63;1.50;;;;;;;-145.69;100.00;52652.34;5114447;28;20272;-81
2023/02/02 10:23:30;;;;;;;11.23;2.00;;;;;;;-145.69;100.00;52656.28;5114742;28;20197;-80
2023/02/02 10:26:14;;;;;;;11.50;2.17;;;;;;;-145.69;100.00;52650.34;5111503;28;20556;-80
2023/02/02 10:29:01;;;;;;;6.37;2.00;;;;;;;-145.69;100.00;52606.78;5114266;28;20707;-81
2023/02/02 10:31:41;;;;;;;5.80;1.83;;;;;;;-145.69;100.00;52622.63;5114258;28;20197;-80
2023/02/02 10:34:17;;;;;;;10.33;2.00;;;;;;;-145.69;100.00;52634.50;5112786;28;20312;-80
2023/02/02 10:37:07;;;;;;;9.37;2.43;;;;;;;-145.69;100.00;52630.53;5114042;28;20559;-80
2023/02/02 10:39:48;;;;;;;10.23;1.80;;;;;;;-145.69;100.00;52620.66;5114052;28;20198;-80
2023/02/02 10:42:27;;;;;;;7.10;2.03;;;;;;;-145.69;100.00;52654.31;5114077;28;20235;-80
2023/02/02 10:44:59;;;;;;;6.10;1.63;;;;;;;-145.69;100.00;52634.50;5113945;28;20216;-80
2023/02/02 10:47:27;;;;;;;8.70;1.80;;;;;;;-145.69;100.00;52610.75;5114087;28;20190;-81
2023/02/02 10:50:19;;;;;;;6.43;1.80;;;;;;;-145.69;100.00;52656.28;5113738;28;20190;-80
2023/02/02 10:52:49;;;;;;;5.57;1.63;;;;;;;-145.69;100.00;52638.47;5112729;28;20244;-80
2023/02/02 10:55:33;;;;;;;5.70;1.63;;;;;;;-145.69;100.00;52644.41;5113810;28;20278;-81
2023/02/02 10:58:12;;;;;;;3.80;1.73;;;;;;;-145.69;100.00;52630.53;5104343;28;20707;-80
2023/02/02 11:00:49;;;;;;;10.53;2.10;;;;;;;-145.69;100.00;52638.47;5114326;28;20200;-81
2023/02/02 11:03:19;;;;;;;5.30;1.80;;;;;;;-145.69;100.00;52628.56;5093537;28;20613;-80
2023/02/02 11:08:34;;;;;;;4.70;1.70;;;;;;;-145.69;100.00;52660.25;5093570;28;20201;-80
2023/02/02 11:11:11;;;;;;;6.73;1.47;;;;;;;-145.69;100.00;52646.41;5109987;28;20197;-80
2023/02/02 11:13:53;;;;;;;14.73;2.20;;;;;;;-145.69;100.00;52618.66;5113512;28;20627;-80
2023/02/02 11:16:30;;;;;;;5.50;2.07;;;;;;;-145.69;100.00;52646.41;5113418;28;20189;-81
2023/02/02 11:19:03;;;;;;;7.53;2.43;;;;;;;-145.69;100.00;52666.19;5113826;28;20197;-80
2023/02/02 11:21:36;;;;;;;9.67;2.17;;;;;;;-145.69;100.00;52638.47;5113634;28;20605;-80
2023/02/02 11:24:05;;;;;;;5.87;1.70;;;;;;;-145.69;100.00;52658.28;5113715;28;20208;-80
2023/02/02 11:26:45;;;;;;;4.97;1.30;;;;;;;-145.69;100.00;52660.25;5113258;28;20197;-81
2023/02/02 11:29:25;;;;;;;3.07;1.50;;;;;;;-145.69;100.00;52662.22;5113586;28;20671;-80
2023/02/02 11:31:53;;;;;;;6.53;1.60;;;;;;;-145.69;100.00;52630.53;5112864;28;20196;-80